sensor_id;sensor_type;location;lat;lon;timestamp;P1;durP1;ratioP1;P2;durP2;ratioP2
5456;SDS011;2751;49.802;9.944;2023-08-06T00:00:56;5.40;;;4.90;;
5456;SDS011;2751;49.802;9.944;2023-08-06T00:03:23;4.90;;;4.50;;
5456;SDS011;2751;49.802;9.944;2023-08-06T00:05:50;4.50;;;4.20;;
5456;SDS011;2751;49.802;9.944;2023-08-06T00:08:17;5.17;;;4.77;;
5456;SDS011;2751;49.802;9.944;2023-08-06T00:10:46;4.30;;;3.90;;
5456;SDS011;2751;49.802;9.944;2023-08-06T00:13:13;10.17;;;5.60;;
5456;SDS011;2751;49.802;9.944;2023-08-06T00:15:40;5.30;;;4.80;;
5456;SDS011;2751;49.802;9.944;2023-08-06T00:18:07;4.47;;;3.73;;
5456;SDS011;2751;49.802;9.944;2023-08-06T00:20:34;4.53;;;3.50;;
5456;SDS011;2751;49.802;9.944;2023-08-06T00:23:01;4.70;;;3.90;;
5456;SDS011;2751;49.802;9.944;2023-08-06T00:25:28;3.83;;;3.47;;
5456;SDS011;2751;49.802;9.944;2023-08-06T00:27:56;3.60;;;3.30;;
5456;SDS011;2751;49.802;9.944;2023-08-06T00:30:23;3.50;;;3.20;;
5456;SDS011;2751;49.802;9.944;2023-08-06T00:32:50;4.03;;;3.07;;
5456;SDS011;2751;49.802;9.944;2023-08-06T00:35:17;3.30;;;3.10;;
5456;SDS011;2751;49.802;9.944;2023-08-06T00:37:43;2.50;;;2.30;;
5456;SDS011;2751;49.802;9.944;2023-08-06T00:40:10;3.10;;;2.90;;
5456;SDS011;2751;49.802;9.944;2023-08-06T00:42:37;2.40;;;2.30;;
5456;SDS011;2751;49.802;9.944;2023-08-06T00:45:06;3.33;;;3.03;;
5456;SDS011;2751;49.802;9.944;2023-08-06T00:47:33;4.30;;;2.63;;
5456;SDS011;2751;49.802;9.944;2023-08-06T00:50:00;2.97;;;2.77;;
5456;SDS011;2751;49.802;9.944;2023-08-06T00:52:27;2.87;;;2.60;;
5456;SDS011;2751;49.802;9.944;2023-08-06T00:54:54;2.70;;;2.50;;
5456;SDS011;2751;49.802;9.944;2023-08-06T00:57:21;2.87;;;2.67;;
5456;SDS011;2751;49.802;9.944;2023-08-06T00:59:51;2.80;;;2.60;;
5456;SDS011;2751;49.802;9.944;2023-08-06T01:02:20;2.93;;;2.73;;
5456;SDS011;2751;49.802;9.944;2023-08-06T01:04:46;2.40;;;2.30;;
5456;SDS011;2751;49.802;9.944;2023-08-06T01:07:16;5.83;;;2.67;;
5456;SDS011;2751;49.802;9.944;2023-08-06T01:09:54;2.90;;;2.70;;
5456;SDS011;2751;49.802;9.944;2023-08-06T01:12:34;2.80;;;2.60;;
5456;SDS011;2751;49.802;9.944;2023-08-06T01:15:11;2.70;;;2.40;;
5456;SDS011;2751;49.802;9.944;2023-08-06T01:17:45;3.23;;;2.70;;
5456;SDS011;2751;49.802;9.944;2023-08-06T01:20:12;3.07;;;2.83;;
5456;SDS011;2751;49.802;9.944;2023-08-06T01:22:40;3.90;;;2.80;;
5456;SDS011;2751;49.802;9.944;2023-08-06T01:25:07;2.43;;;2.20;;
5456;SDS011;2751;49.802;9.944;2023-08-06T01:27:36;2.60;;;2.40;;
5456;SDS011;2751;49.802;9.944;2023-08-06T01:30:11;3.10;;;2.77;;
5456;SDS011;2751;49.802;9.944;2023-08-06T01:32:42;3.20;;;2.83;;
5456;SDS011;2751;49.802;9.944;2023-08-06T01:35:11;3.03;;;2.77;;
5456;SDS011;2751;49.802;9.944;2023-08-06T01:37:41;3.13;;;2.93;;
5456;SDS011;2751;49.802;9.944;2023-08-06T01:40:09;3.83;;;2.93;;
5456;SDS011;2751;49.802;9.944;2023-08-06T01:42:37;2.43;;;2.33;;
5456;SDS011;2751;49.802;9.944;2023-08-06T01:45:04;3.63;;;2.60;;
5456;SDS011;2751;49.802;9.944;2023-08-06T01:47:32;2.87;;;2.67;;
5456;SDS011;2751;49.802;9.944;2023-08-06T01:49:59;3.20;;;2.90;;
5456;SDS011;2751;49.802;9.944;2023-08-06T01:52:26;5.70;;;2.40;;
5456;SDS011;2751;49.802;9.944;2023-08-06T01:54:55;3.53;;;2.47;;
5456;SDS011;2751;49.802;9.944;2023-08-06T01:57:22;3.07;;;2.77;;
5456;SDS011;2751;49.802;9.944;2023-08-06T01:59:48;4.43;;;2.70;;
5456;SDS011;2751;49.802;9.944;2023-08-06T02:02:15;6.20;;;2.67;;
5456;SDS011;2751;49.802;9.944;2023-08-06T02:04:42;3.17;;;2.87;;
5456;SDS011;2751;49.802;9.944;2023-08-06T02:07:09;3.30;;;2.93;;
5456;SDS011;2751;49.802;9.944;2023-08-06T02:09:36;2.40;;;2.30;;
5456;SDS011;2751;49.802;9.944;2023-08-06T02:12:05;2.67;;;2.57;;
5456;SDS011;2751;49.802;9.944;2023-08-06T02:14:32;3.00;;;2.80;;
5456;SDS011;2751;49.802;9.944;2023-08-06T02:16:59;3.83;;;2.70;;
5456;SDS011;2751;49.802;9.944;2023-08-06T02:19:26;6.73;;;2.97;;
5456;SDS011;2751;49.802;9.944;2023-08-06T02:21:53;2.70;;;2.50;;
5456;SDS011;2751;49.802;9.944;2023-08-06T02:24:20;2.97;;;2.67;;
5456;SDS011;2751;49.802;9.944;2023-08-06T02:26:46;3.03;;;2.83;;
5456;SDS011;2751;49.802;9.944;2023-08-06T02:29:17;2.73;;;2.53;;
5456;SDS011;2751;49.802;9.944;2023-08-06T02:31:44;2.57;;;2.37;;
5456;SDS011;2751;49.802;9.944;2023-08-06T02:34:11;4.90;;;2.60;;
5456;SDS011;2751;49.802;9.944;2023-08-06T02:36:38;2.53;;;2.43;;
5456;SDS011;2751;49.802;9.944;2023-08-06T02:39:04;3.07;;;2.77;;
5456;SDS011;2751;49.802;9.944;2023-08-06T02:41:31;2.50;;;2.40;;
5456;SDS011;2751;49.802;9.944;2023-08-06T02:43:58;2.50;;;2.27;;
5456;SDS011;2751;49.802;9.944;2023-08-06T02:46:26;3.30;;;3.00;;
5456;SDS011;2751;49.802;9.944;2023-08-06T02:48:53;2.30;;;2.10;;
5456;SDS011;2751;49.802;9.944;2023-08-06T02:51:20;2.27;;;2.17;;
5456;SDS011;2751;49.802;9.944;2023-08-06T02:53:47;2.67;;;2.57;;
5456;SDS011;2751;49.802;9.944;2023-08-06T02:56:14;4.73;;;2.63;;
5456;SDS011;2751;49.802;9.944;2023-08-06T02:58:41;2.40;;;2.20;;
5456;SDS011;2751;49.802;9.944;2023-08-06T03:01:08;2.77;;;2.40;;
5456;SDS011;2751;49.802;9.944;2023-08-06T03:03:36;3.30;;;2.90;;
5456;SDS011;2751;49.802;9.944;2023-08-06T03:06:03;4.30;;;2.43;;
5456;SDS011;2751;49.802;9.944;2023-08-06T03:08:30;2.70;;;2.50;;
5456;SDS011;2751;49.802;9.944;2023-08-06T03:10:57;3.43;;;2.80;;
5456;SDS011;2751;49.802;9.944;2023-08-06T03:13:24;5.57;;;2.53;;
5456;SDS011;2751;49.802;9.944;2023-08-06T03:15:54;2.80;;;2.60;;
5456;SDS011;2751;49.802;9.944;2023-08-06T03:18:21;3.43;;;2.50;;
5456;SDS011;2751;49.802;9.944;2023-08-06T03:20:50;5.13;;;2.80;;
5456;SDS011;2751;49.802;9.944;2023-08-06T03:23:16;2.67;;;2.47;;
5456;SDS011;2751;49.802;9.944;2023-08-06T03:25:43;3.03;;;2.73;;
5456;SDS011;2751;49.802;9.944;2023-08-06T03:28:11;3.10;;;2.80;;
5456;SDS011;2751;49.802;9.944;2023-08-06T03:30:38;2.40;;;2.20;;
5456;SDS011;2751;49.802;9.944;2023-08-06T03:33:05;2.47;;;2.37;;
5456;SDS011;2751;49.802;9.944;2023-08-06T03:35:32;2.90;;;2.70;;
5456;SDS011;2751;49.802;9.944;2023-08-06T03:38:00;4.40;;;2.93;;
5456;SDS011;2751;49.802;9.944;2023-08-06T03:40:27;3.13;;;2.83;;
5456;SDS011;2751;49.802;9.944;2023-08-06T03:42:54;3.23;;;3.03;;
5456;SDS011;2751;49.802;9.944;2023-08-06T03:45:20;3.43;;;2.83;;
5456;SDS011;2751;49.802;9.944;2023-08-06T03:47:47;4.27;;;3.30;;
5456;SDS011;2751;49.802;9.944;2023-08-06T03:50:14;2.80;;;2.60;;
5456;SDS011;2751;49.802;9.944;2023-08-06T03:52:41;3.30;;;2.90;;
5456;SDS011;2751;49.802;9.944;2023-08-06T03:55:10;3.70;;;3.50;;
5456;SDS011;2751;49.802;9.944;2023-08-06T03:57:37;2.80;;;2.60;;
5456;SDS011;2751;49.802;9.944;2023-08-06T04:00:04;15.93;;;3.03;;
5456;SDS011;2751;49.802;9.944;2023-08-06T04:02:32;2.90;;;2.70;;
5456;SDS011;2751;49.802;9.944;2023-08-06T04:04:59;2.77;;;2.57;;
5456;SDS011;2751;49.802;9.944;2023-08-06T04:07:26;3.47;;;3.20;;
5456;SDS011;2751;49.802;9.944;2023-08-06T04:09:53;3.30;;;2.53;;
5456;SDS011;2751;49.802;9.944;2023-08-06T04:12:23;3.10;;;2.90;;
5456;SDS011;2751;49.802;9.944;2023-08-06T04:14:50;2.57;;;2.37;;
5456;SDS011;2751;49.802;9.944;2023-08-06T04:17:17;3.20;;;3.00;;
5456;SDS011;2751;49.802;9.944;2023-08-06T04:19:46;2.60;;;2.50;;
5456;SDS011;2751;49.802;9.944;2023-08-06T04:22:14;3.03;;;2.73;;
5456;SDS011;2751;49.802;9.944;2023-08-06T04:24:41;3.00;;;2.80;;
5456;SDS011;2751;49.802;9.944;2023-08-06T04:27:09;4.40;;;2.93;;
5456;SDS011;2751;49.802;9.944;2023-08-06T04:29:37;5.40;;;3.03;;
5456;SDS011;2751;49.802;9.944;2023-08-06T04:32:05;2.90;;;2.70;;
5456;SDS011;2751;49.802;9.944;2023-08-06T04:34:32;3.33;;;3.00;;
5456;SDS011;2751;49.802;9.944;2023-08-06T04:36:59;3.33;;;2.87;;
5456;SDS011;2751;49.802;9.944;2023-08-06T04:39:27;2.60;;;2.50;;
5456;SDS011;2751;49.802;9.944;2023-08-06T04:41:54;3.07;;;2.87;;
5456;SDS011;2751;49.802;9.944;2023-08-06T04:44:22;2.60;;;2.40;;
5456;SDS011;2751;49.802;9.944;2023-08-06T04:46:50;3.13;;;2.63;;
5456;SDS011;2751;49.802;9.944;2023-08-06T04:49:17;2.87;;;2.67;;
5456;SDS011;2751;49.802;9.944;2023-08-06T04:51:44;3.00;;;2.63;;
5456;SDS011;2751;49.802;9.944;2023-08-06T04:54:11;3.80;;;2.60;;
5456;SDS011;2751;49.802;9.944;2023-08-06T04:56:38;2.83;;;2.63;;
5456;SDS011;2751;49.802;9.944;2023-08-06T04:59:05;2.50;;;2.40;;
5456;SDS011;2751;49.802;9.944;2023-08-06T05:01:32;11.53;;;3.40;;
5456;SDS011;2751;49.802;9.944;2023-08-06T05:04:00;3.90;;;2.83;;
5456;SDS011;2751;49.802;9.944;2023-08-06T05:06:27;2.50;;;2.40;;
5456;SDS011;2751;49.802;9.944;2023-08-06T05:08:54;3.93;;;2.53;;
5456;SDS011;2751;49.802;9.944;2023-08-06T05:11:20;2.77;;;2.63;;
5456;SDS011;2751;49.802;9.944;2023-08-06T05:13:49;2.37;;;2.17;;
5456;SDS011;2751;49.802;9.944;2023-08-06T05:16:16;2.27;;;2.17;;
5456;SDS011;2751;49.802;9.944;2023-08-06T05:18:42;2.37;;;2.27;;
5456;SDS011;2751;49.802;9.944;2023-08-06T05:21:11;3.03;;;2.83;;
5456;SDS011;2751;49.802;9.944;2023-08-06T05:23:38;3.00;;;2.40;;
5456;SDS011;2751;49.802;9.944;2023-08-06T05:26:04;3.00;;;2.80;;
5456;SDS011;2751;49.802;9.944;2023-08-06T05:28:31;4.77;;;3.67;;
5456;SDS011;2751;49.802;9.944;2023-08-06T05:30:58;3.13;;;2.93;;
5456;SDS011;2751;49.802;9.944;2023-08-06T05:33:28;3.20;;;2.90;;
5456;SDS011;2751;49.802;9.944;2023-08-06T05:35:55;3.47;;;3.27;;
5456;SDS011;2751;49.802;9.944;2023-08-06T05:38:23;3.60;;;3.13;;
5456;SDS011;2751;49.802;9.944;2023-08-06T05:40:50;3.30;;;3.20;;
5456;SDS011;2751;49.802;9.944;2023-08-06T05:43:17;3.70;;;3.50;;
5456;SDS011;2751;49.802;9.944;2023-08-06T05:45:44;4.30;;;3.30;;
5456;SDS011;2751;49.802;9.944;2023-08-06T05:48:12;4.33;;;3.93;;
5456;SDS011;2751;49.802;9.944;2023-08-06T05:50:39;3.63;;;3.53;;
5456;SDS011;2751;49.802;9.944;2023-08-06T05:53:06;3.47;;;3.37;;
5456;SDS011;2751;49.802;9.944;2023-08-06T05:55:34;4.37;;;4.10;;
5456;SDS011;2751;49.802;9.944;2023-08-06T05:58:01;4.80;;;4.50;;
5456;SDS011;2751;49.802;9.944;2023-08-06T06:00:28;5.00;;;4.60;;
5456;SDS011;2751;49.802;9.944;2023-08-06T06:02:55;5.50;;;5.20;;
5456;SDS011;2751;49.802;9.944;2023-08-06T06:05:21;5.97;;;5.57;;
5456;SDS011;2751;49.802;9.944;2023-08-06T06:07:48;5.83;;;5.40;;
5456;SDS011;2751;49.802;9.944;2023-08-06T06:10:15;5.77;;;5.47;;
5456;SDS011;2751;49.802;9.944;2023-08-06T06:12:43;6.83;;;6.33;;
5456;SDS011;2751;49.802;9.944;2023-08-06T06:15:10;7.13;;;6.63;;
5456;SDS011;2751;49.802;9.944;2023-08-06T06:17:38;7.87;;;7.47;;
5456;SDS011;2751;49.802;9.944;2023-08-06T06:20:05;7.57;;;7.07;;
5456;SDS011;2751;49.802;9.944;2023-08-06T06:22:33;6.80;;;6.50;;
5456;SDS011;2751;49.802;9.944;2023-08-06T06:25:00;6.93;;;6.43;;
5456;SDS011;2751;49.802;9.944;2023-08-06T06:27:26;7.60;;;7.10;;
5456;SDS011;2751;49.802;9.944;2023-08-06T06:29:55;10.20;;;6.77;;
5456;SDS011;2751;49.802;9.944;2023-08-06T06:32:21;7.60;;;7.10;;
5456;SDS011;2751;49.802;9.944;2023-08-06T06:34:48;7.07;;;6.73;;
5456;SDS011;2751;49.802;9.944;2023-08-06T06:37:15;7.87;;;7.17;;
5456;SDS011;2751;49.802;9.944;2023-08-06T06:39:42;7.53;;;7.03;;
5456;SDS011;2751;49.802;9.944;2023-08-06T06:42:10;7.77;;;7.27;;
5456;SDS011;2751;49.802;9.944;2023-08-06T06:44:37;7.70;;;7.27;;
5456;SDS011;2751;49.802;9.944;2023-08-06T06:47:05;8.37;;;7.77;;
5456;SDS011;2751;49.802;9.944;2023-08-06T06:49:32;7.07;;;6.73;;
5456;SDS011;2751;49.802;9.944;2023-08-06T06:51:59;7.30;;;6.90;;
5456;SDS011;2751;49.802;9.944;2023-08-06T06:54:25;7.63;;;7.33;;
5456;SDS011;2751;49.802;9.944;2023-08-06T06:56:52;7.87;;;7.47;;
5456;SDS011;2751;49.802;9.944;2023-08-06T06:59:19;7.50;;;7.10;;
5456;SDS011;2751;49.802;9.944;2023-08-06T07:01:46;7.27;;;6.97;;
5456;SDS011;2751;49.802;9.944;2023-08-06T07:04:14;7.70;;;7.30;;
5456;SDS011;2751;49.802;9.944;2023-08-06T07:06:41;7.37;;;7.07;;
5456;SDS011;2751;49.802;9.944;2023-08-06T07:09:08;7.60;;;7.20;;
5456;SDS011;2751;49.802;9.944;2023-08-06T07:11:35;7.53;;;6.90;;
5456;SDS011;2751;49.802;9.944;2023-08-06T07:14:02;7.50;;;7.10;;
5456;SDS011;2751;49.802;9.944;2023-08-06T07:16:29;7.90;;;7.50;;
5456;SDS011;2751;49.802;9.944;2023-08-06T07:18:55;7.07;;;6.70;;
5456;SDS011;2751;49.802;9.944;2023-08-06T07:21:24;6.90;;;6.60;;
5456;SDS011;2751;49.802;9.944;2023-08-06T07:23:50;6.97;;;6.67;;
5456;SDS011;2751;49.802;9.944;2023-08-06T07:26:17;7.30;;;7.00;;
5456;SDS011;2751;49.802;9.944;2023-08-06T07:28:44;7.03;;;6.73;;
5456;SDS011;2751;49.802;9.944;2023-08-06T07:31:11;7.90;;;7.20;;
5456;SDS011;2751;49.802;9.944;2023-08-06T07:33:38;7.47;;;7.17;;
5456;SDS011;2751;49.802;9.944;2023-08-06T07:36:08;7.43;;;7.13;;
5456;SDS011;2751;49.802;9.944;2023-08-06T07:38:37;7.30;;;7.00;;
5456;SDS011;2751;49.802;9.944;2023-08-06T07:41:04;7.87;;;7.50;;
5456;SDS011;2751;49.802;9.944;2023-08-06T07:43:31;7.50;;;7.20;;
5456;SDS011;2751;49.802;9.944;2023-08-06T07:45:58;7.93;;;7.43;;
5456;SDS011;2751;49.802;9.944;2023-08-06T07:48:26;8.30;;;8.00;;
5456;SDS011;2751;49.802;9.944;2023-08-06T07:50:53;8.13;;;7.83;;
5456;SDS011;2751;49.802;9.944;2023-08-06T07:53:20;7.40;;;7.10;;
5456;SDS011;2751;49.802;9.944;2023-08-06T07:55:50;7.73;;;7.43;;
5456;SDS011;2751;49.802;9.944;2023-08-06T07:58:19;9.10;;;7.83;;
5456;SDS011;2751;49.802;9.944;2023-08-06T08:00:46;7.90;;;7.60;;
5456;SDS011;2751;49.802;9.944;2023-08-06T08:03:13;6.93;;;6.73;;
5456;SDS011;2751;49.802;9.944;2023-08-06T08:05:41;6.80;;;6.47;;
5456;SDS011;2751;49.802;9.944;2023-08-06T08:08:08;7.80;;;7.40;;
5456;SDS011;2751;49.802;9.944;2023-08-06T08:10:35;7.67;;;7.37;;
5456;SDS011;2751;49.802;9.944;2023-08-06T08:13:04;8.03;;;7.63;;
5456;SDS011;2751;49.802;9.944;2023-08-06T08:15:32;7.13;;;6.83;;
5456;SDS011;2751;49.802;9.944;2023-08-06T08:18:00;7.37;;;7.10;;
5456;SDS011;2751;49.802;9.944;2023-08-06T08:20:27;8.53;;;8.13;;
5456;SDS011;2751;49.802;9.944;2023-08-06T08:22:57;8.33;;;7.80;;
5456;SDS011;2751;49.802;9.944;2023-08-06T08:25:25;7.50;;;7.30;;
5456;SDS011;2751;49.802;9.944;2023-08-06T08:27:52;7.50;;;7.20;;
5456;SDS011;2751;49.802;9.944;2023-08-06T08:30:21;6.90;;;6.50;;
5456;SDS011;2751;49.802;9.944;2023-08-06T08:32:50;7.70;;;7.40;;
5456;SDS011;2751;49.802;9.944;2023-08-06T08:35:17;7.60;;;7.20;;
5456;SDS011;2751;49.802;9.944;2023-08-06T08:37:43;7.50;;;7.10;;
5456;SDS011;2751;49.802;9.944;2023-08-06T08:40:10;6.77;;;6.37;;
5456;SDS011;2751;49.802;9.944;2023-08-06T08:42:38;6.67;;;6.47;;
5456;SDS011;2751;49.802;9.944;2023-08-06T08:45:05;6.87;;;6.57;;
5456;SDS011;2751;49.802;9.944;2023-08-06T08:47:39;6.93;;;6.67;;
5456;SDS011;2751;49.802;9.944;2023-08-06T08:50:07;7.10;;;6.50;;
5456;SDS011;2751;49.802;9.944;2023-08-06T08:52:35;7.17;;;6.87;;
5456;SDS011;2751;49.802;9.944;2023-08-06T08:55:04;6.80;;;6.60;;
5456;SDS011;2751;49.802;9.944;2023-08-06T08:57:32;6.63;;;6.43;;
5456;SDS011;2751;49.802;9.944;2023-08-06T08:59:59;7.17;;;6.87;;
5456;SDS011;2751;49.802;9.944;2023-08-06T09:02:28;7.27;;;7.07;;
5456;SDS011;2751;49.802;9.944;2023-08-06T09:04:58;7.17;;;6.97;;
5456;SDS011;2751;49.802;9.944;2023-08-06T09:07:27;7.50;;;7.20;;
5456;SDS011;2751;49.802;9.944;2023-08-06T09:09:58;7.07;;;6.77;;
5456;SDS011;2751;49.802;9.944;2023-08-06T09:12:28;7.23;;;6.93;;
5456;SDS011;2751;49.802;9.944;2023-08-06T09:14:55;7.23;;;7.03;;
5456;SDS011;2751;49.802;9.944;2023-08-06T09:17:22;7.83;;;7.53;;
5456;SDS011;2751;49.802;9.944;2023-08-06T09:19:49;7.07;;;6.77;;
5456;SDS011;2751;49.802;9.944;2023-08-06T09:22:17;7.40;;;7.20;;
5456;SDS011;2751;49.802;9.944;2023-08-06T09:24:44;7.70;;;7.50;;
5456;SDS011;2751;49.802;9.944;2023-08-06T09:27:11;7.63;;;7.40;;
5456;SDS011;2751;49.802;9.944;2023-08-06T09:29:40;8.03;;;7.73;;
5456;SDS011;2751;49.802;9.944;2023-08-06T09:32:08;7.73;;;7.43;;
5456;SDS011;2751;49.802;9.944;2023-08-06T09:34:35;7.43;;;7.10;;
5456;SDS011;2751;49.802;9.944;2023-08-06T09:37:05;7.70;;;7.40;;
5456;SDS011;2751;49.802;9.944;2023-08-06T09:39:35;8.20;;;7.90;;
5456;SDS011;2751;49.802;9.944;2023-08-06T09:42:05;8.00;;;7.40;;
5456;SDS011;2751;49.802;9.944;2023-08-06T09:44:32;7.60;;;7.20;;
5456;SDS011;2751;49.802;9.944;2023-08-06T09:47:00;7.87;;;7.43;;
5456;SDS011;2751;49.802;9.944;2023-08-06T09:49:28;7.50;;;7.20;;
5456;SDS011;2751;49.802;9.944;2023-08-06T09:52:11;7.80;;;7.50;;
5456;SDS011;2751;49.802;9.944;2023-08-06T09:54:40;7.90;;;7.60;;
5456;SDS011;2751;49.802;9.944;2023-08-06T09:57:08;7.87;;;7.47;;
5456;SDS011;2751;49.802;9.944;2023-08-06T09:59:35;7.27;;;7.07;;
5456;SDS011;2751;49.802;9.944;2023-08-06T10:02:05;7.80;;;7.50;;
5456;SDS011;2751;49.802;9.944;2023-08-06T10:04:38;8.00;;;7.70;;
5456;SDS011;2751;49.802;9.944;2023-08-06T10:07:05;8.50;;;7.87;;
5456;SDS011;2751;49.802;9.944;2023-08-06T10:09:32;8.23;;;7.93;;
5456;SDS011;2751;49.802;9.944;2023-08-06T10:12:01;8.50;;;8.20;;
5456;SDS011;2751;49.802;9.944;2023-08-06T10:14:28;8.30;;;8.00;;
5456;SDS011;2751;49.802;9.944;2023-08-06T10:16:58;8.27;;;7.97;;
5456;SDS011;2751;49.802;9.944;2023-08-06T10:19:27;8.60;;;8.30;;
5456;SDS011;2751;49.802;9.944;2023-08-06T10:22:11;8.60;;;8.20;;
5456;SDS011;2751;49.802;9.944;2023-08-06T10:24:45;8.10;;;7.80;;
5456;SDS011;2751;49.802;9.944;2023-08-06T10:27:14;8.10;;;7.80;;
5456;SDS011;2751;49.802;9.944;2023-08-06T10:29:46;8.37;;;8.07;;
5456;SDS011;2751;49.802;9.944;2023-08-06T10:32:13;8.40;;;8.10;;
5456;SDS011;2751;49.802;9.944;2023-08-06T10:34:56;8.23;;;7.93;;
5456;SDS011;2751;49.802;9.944;2023-08-06T10:37:34;7.50;;;7.10;;
5456;SDS011;2751;49.802;9.944;2023-08-06T10:40:02;8.63;;;8.23;;
5456;SDS011;2751;49.802;9.944;2023-08-06T10:42:30;8.50;;;8.20;;
5456;SDS011;2751;49.802;9.944;2023-08-06T10:45:16;8.17;;;7.87;;
5456;SDS011;2751;49.802;9.944;2023-08-06T10:47:44;8.57;;;8.27;;
5456;SDS011;2751;49.802;9.944;2023-08-06T10:50:12;9.50;;;9.10;;
5456;SDS011;2751;49.802;9.944;2023-08-06T10:52:41;10.07;;;9.67;;
5456;SDS011;2751;49.802;9.944;2023-08-06T10:55:09;9.50;;;9.10;;
5456;SDS011;2751;49.802;9.944;2023-08-06T10:57:37;9.10;;;8.80;;
5456;SDS011;2751;49.802;9.944;2023-08-06T11:00:04;9.03;;;8.70;;
5456;SDS011;2751;49.802;9.944;2023-08-06T11:02:33;9.10;;;8.80;;
5456;SDS011;2751;49.802;9.944;2023-08-06T11:05:04;9.30;;;9.00;;
5456;SDS011;2751;49.802;9.944;2023-08-06T11:07:32;9.40;;;9.00;;
5456;SDS011;2751;49.802;9.944;2023-08-06T11:10:03;9.70;;;9.30;;
5456;SDS011;2751;49.802;9.944;2023-08-06T11:12:31;8.80;;;8.50;;
5456;SDS011;2751;49.802;9.944;2023-08-06T11:14:59;9.67;;;9.27;;
5456;SDS011;2751;49.802;9.944;2023-08-06T11:17:27;9.20;;;8.90;;
5456;SDS011;2751;49.802;9.944;2023-08-06T11:19:55;9.03;;;8.73;;
5456;SDS011;2751;49.802;9.944;2023-08-06T11:22:22;9.03;;;8.67;;
5456;SDS011;2751;49.802;9.944;2023-08-06T11:24:49;8.97;;;8.67;;
5456;SDS011;2751;49.802;9.944;2023-08-06T11:27:16;8.90;;;8.60;;
5456;SDS011;2751;49.802;9.944;2023-08-06T11:29:44;9.03;;;8.60;;
5456;SDS011;2751;49.802;9.944;2023-08-06T11:32:12;9.33;;;9.03;;
5456;SDS011;2751;49.802;9.944;2023-08-06T11:34:39;9.67;;;9.30;;
5456;SDS011;2751;49.802;9.944;2023-08-06T11:37:06;9.50;;;9.20;;
5456;SDS011;2751;49.802;9.944;2023-08-06T11:39:33;9.80;;;9.40;;
5456;SDS011;2751;49.802;9.944;2023-08-06T11:42:02;9.33;;;9.03;;
5456;SDS011;2751;49.802;9.944;2023-08-06T11:44:30;8.90;;;8.60;;
5456;SDS011;2751;49.802;9.944;2023-08-06T11:46:58;8.87;;;8.47;;
5456;SDS011;2751;49.802;9.944;2023-08-06T11:49:40;9.97;;;9.30;;
5456;SDS011;2751;49.802;9.944;2023-08-06T11:52:12;10.10;;;9.70;;
5456;SDS011;2751;49.802;9.944;2023-08-06T11:54:40;9.90;;;9.50;;
5456;SDS011;2751;49.802;9.944;2023-08-06T11:57:07;10.43;;;10.03;;
5456;SDS011;2751;49.802;9.944;2023-08-06T11:59:34;31.50;;;29.30;;
5456;SDS011;2751;49.802;9.944;2023-08-06T12:02:03;10.03;;;9.63;;
5456;SDS011;2751;49.802;9.944;2023-08-06T12:04:31;12.33;;;11.53;;
5456;SDS011;2751;49.802;9.944;2023-08-06T12:07:05;8.63;;;8.13;;
5456;SDS011;2751;49.802;9.944;2023-08-06T12:09:33;8.27;;;7.97;;
5456;SDS011;2751;49.802;9.944;2023-08-06T12:12:01;6.17;;;5.87;;
5456;SDS011;2751;49.802;9.944;2023-08-06T12:14:29;5.17;;;4.97;;
5456;SDS011;2751;49.802;9.944;2023-08-06T12:16:56;3.03;;;2.93;;
5456;SDS011;2751;49.802;9.944;2023-08-06T12:19:23;1.77;;;1.70;;
5456;SDS011;2751;49.802;9.944;2023-08-06T12:21:51;2.00;;;1.23;;
5456;SDS011;2751;49.802;9.944;2023-08-06T12:24:19;1.33;;;1.23;;
5456;SDS011;2751;49.802;9.944;2023-08-06T12:26:46;1.43;;;0.90;;
5456;SDS011;2751;49.802;9.944;2023-08-06T12:29:13;1.77;;;0.77;;
5456;SDS011;2751;49.802;9.944;2023-08-06T12:31:40;1.00;;;0.80;;
5456;SDS011;2751;49.802;9.944;2023-08-06T12:34:06;2.27;;;1.80;;
5456;SDS011;2751;49.802;9.944;2023-08-06T12:36:33;1.47;;;1.47;;
5456;SDS011;2751;49.802;9.944;2023-08-06T12:39:00;1.60;;;1.50;;
5456;SDS011;2751;49.802;9.944;2023-08-06T12:41:28;2.73;;;1.90;;
5456;SDS011;2751;49.802;9.944;2023-08-06T12:43:55;1.40;;;1.30;;
5456;SDS011;2751;49.802;9.944;2023-08-06T12:46:22;1.17;;;1.07;;
5456;SDS011;2751;49.802;9.944;2023-08-06T12:48:49;1.17;;;1.07;;
5456;SDS011;2751;49.802;9.944;2023-08-06T12:51:16;1.30;;;1.00;;
5456;SDS011;2751;49.802;9.944;2023-08-06T12:53:43;0.90;;;0.90;;
5456;SDS011;2751;49.802;9.944;2023-08-06T12:56:09;0.90;;;0.90;;
5456;SDS011;2751;49.802;9.944;2023-08-06T12:58:38;1.10;;;1.00;;
5456;SDS011;2751;49.802;9.944;2023-08-06T13:01:05;0.70;;;0.70;;
5456;SDS011;2751;49.802;9.944;2023-08-06T13:03:31;0.90;;;0.90;;
5456;SDS011;2751;49.802;9.944;2023-08-06T13:05:58;0.87;;;0.87;;
5456;SDS011;2751;49.802;9.944;2023-08-06T13:08:25;3.07;;;0.90;;
5456;SDS011;2751;49.802;9.944;2023-08-06T13:10:52;0.50;;;0.50;;
5456;SDS011;2751;49.802;9.944;2023-08-06T13:13:19;0.70;;;0.70;;
5456;SDS011;2751;49.802;9.944;2023-08-06T13:15:47;0.70;;;0.70;;
5456;SDS011;2751;49.802;9.944;2023-08-06T13:18:14;0.60;;;0.60;;
5456;SDS011;2751;49.802;9.944;2023-08-06T13:20:41;1.03;;;0.97;;
5456;SDS011;2751;49.802;9.944;2023-08-06T13:23:08;0.80;;;0.77;;
5456;SDS011;2751;49.802;9.944;2023-08-06T13:25:35;1.37;;;0.80;;
5456;SDS011;2751;49.802;9.944;2023-08-06T13:28:04;1.90;;;0.80;;
5456;SDS011;2751;49.802;9.944;2023-08-06T13:30:31;0.80;;;0.80;;
5456;SDS011;2751;49.802;9.944;2023-08-06T13:33:01;2.73;;;0.80;;
5456;SDS011;2751;49.802;9.944;2023-08-06T13:35:29;0.73;;;0.70;;
5456;SDS011;2751;49.802;9.944;2023-08-06T13:37:56;0.50;;;0.50;;
5456;SDS011;2751;49.802;9.944;2023-08-06T13:40:23;0.87;;;0.77;;
5456;SDS011;2751;49.802;9.944;2023-08-06T13:42:50;0.80;;;0.80;;
5456;SDS011;2751;49.802;9.944;2023-08-06T13:45:17;0.57;;;0.57;;
5456;SDS011;2751;49.802;9.944;2023-08-06T13:47:43;0.70;;;0.70;;
5456;SDS011;2751;49.802;9.944;2023-08-06T13:50:12;0.53;;;0.53;;
5456;SDS011;2751;49.802;9.944;2023-08-06T13:52:39;0.60;;;0.60;;
5456;SDS011;2751;49.802;9.944;2023-08-06T13:55:06;0.50;;;0.50;;
5456;SDS011;2751;49.802;9.944;2023-08-06T13:57:34;1.70;;;0.60;;
5456;SDS011;2751;49.802;9.944;2023-08-06T14:00:01;0.50;;;0.50;;
5456;SDS011;2751;49.802;9.944;2023-08-06T14:02:28;0.70;;;0.70;;
5456;SDS011;2751;49.802;9.944;2023-08-06T14:04:55;0.70;;;0.70;;
5456;SDS011;2751;49.802;9.944;2023-08-06T14:07:23;1.80;;;0.60;;
5456;SDS011;2751;49.802;9.944;2023-08-06T14:09:50;1.73;;;0.73;;
5456;SDS011;2751;49.802;9.944;2023-08-06T14:12:17;0.50;;;0.50;;
5456;SDS011;2751;49.802;9.944;2023-08-06T14:14:44;0.70;;;0.70;;
5456;SDS011;2751;49.802;9.944;2023-08-06T14:17:12;0.97;;;0.60;;
5456;SDS011;2751;49.802;9.944;2023-08-06T14:19:39;0.50;;;0.50;;
5456;SDS011;2751;49.802;9.944;2023-08-06T14:22:05;0.60;;;0.60;;
5456;SDS011;2751;49.802;9.944;2023-08-06T14:24:34;2.50;;;0.80;;
5456;SDS011;2751;49.802;9.944;2023-08-06T14:27:01;1.00;;;0.90;;
5456;SDS011;2751;49.802;9.944;2023-08-06T14:29:29;1.40;;;0.70;;
5456;SDS011;2751;49.802;9.944;2023-08-06T14:31:56;0.70;;;0.70;;
5456;SDS011;2751;49.802;9.944;2023-08-06T14:34:22;0.60;;;0.60;;
5456;SDS011;2751;49.802;9.944;2023-08-06T14:36:49;1.53;;;0.97;;
5456;SDS011;2751;49.802;9.944;2023-08-06T14:39:16;0.90;;;0.90;;
5456;SDS011;2751;49.802;9.944;2023-08-06T14:41:45;0.70;;;0.70;;
5456;SDS011;2751;49.802;9.944;2023-08-06T14:44:12;0.83;;;0.70;;
5456;SDS011;2751;49.802;9.944;2023-08-06T14:46:39;0.70;;;0.70;;
5456;SDS011;2751;49.802;9.944;2023-08-06T14:49:06;0.90;;;0.90;;
5456;SDS011;2751;49.802;9.944;2023-08-06T14:51:33;0.77;;;0.73;;
5456;SDS011;2751;49.802;9.944;2023-08-06T14:54:00;0.80;;;0.80;;
5456;SDS011;2751;49.802;9.944;2023-08-06T14:56:26;1.07;;;1.00;;
5456;SDS011;2751;49.802;9.944;2023-08-06T14:58:55;1.03;;;1.00;;
5456;SDS011;2751;49.802;9.944;2023-08-06T15:01:21;1.60;;;1.60;;
5456;SDS011;2751;49.802;9.944;2023-08-06T15:03:48;1.53;;;1.43;;
5456;SDS011;2751;49.802;9.944;2023-08-06T15:06:15;1.97;;;1.97;;
5456;SDS011;2751;49.802;9.944;2023-08-06T15:08:42;1.90;;;1.80;;
5456;SDS011;2751;49.802;9.944;2023-08-06T15:11:12;1.70;;;1.70;;
5456;SDS011;2751;49.802;9.944;2023-08-06T15:13:39;1.97;;;1.87;;
5456;SDS011;2751;49.802;9.944;2023-08-06T15:16:08;3.37;;;1.80;;
5456;SDS011;2751;49.802;9.944;2023-08-06T15:18:34;1.60;;;1.60;;